Řízení letového provozu České republiky  
Aktualizace dat:  20.06.2018 07:17:07 UTC English version
   METEO Zobrazení stránky:  20.06.2018 07:17:26 UTC  
vysvětlivky
METAR EDDB 200650Z 12004KT 070V160 CAVOK 19/13 Q1023 NOSIG=
METAR EDDC 200650Z 16004KT 140V210 CAVOK 20/14 Q1024 NOSIG=
METAR EDDE 200650Z VRB02KT 9999 BKN046 20/15 Q1023 NOSIG=
METAR EDDF 200650Z 08005KT 050V110 9999 FEW032 23/15 Q1023 NOSIG=
METAR EDDM 200650Z 07005KT 030V120 CAVOK 21/15 Q1023 NOSIG=
METAR EDDN 200650Z VRB02KT 9999 FEW043 23/14 Q1023 NOSIG=
METAR EDDP 200650Z 16006KT CAVOK 21/16 Q1023 NOSIG=
METAR EDDT 200650Z 15005KT 110V210 CAVOK 20/13 Q1023 NOSIG=
METAR EDQM 200650Z 12004KT 070V150 CAVOK 19/13 Q1024=
METAR EPBY 200700Z 29009KT 260V320 9999 FEW031 20/10 Q1022 =
METAR EPGD 200700Z 27011KT 9999 FEW024 18/09 Q1021 =
METAR EPKK 200700Z VRB02KT CAVOK 23/14 Q1024 =
METAR EPKT 200700Z VRB02KT CAVOK 21/15 Q1024 =
METAR EPLL 200700Z VRB04KT 9999 FEW036 23/13 Q1023 =
METAR EPPO 200700Z 31006KT CAVOK 21/10 Q1023 =
METAR EPRZ 200700Z VRB03KT CAVOK 22/14 Q1023 =
METAR EPWA 200700Z 27006KT 240V330 9999 FEW033 23/14 Q1022 NOSIG=
METAR EPWR 200700Z VRB03KT 9999 FEW043 23/14 Q1023 =
METAR LHBP 200700Z 07008KT 030V110 CAVOK 25/16 Q1022 NOSIG=
METAR LHSM 200645Z 32007KT CAVOK 21/15 Q1023 NOSIG=
METAR LKCV 200700Z VRB01KT CAVOK 21/15 Q1024 NOSIG RMK BLU BLU=
METAR LKKB 200700Z VRB02KT CAVOK 21/15 Q1024 NOSIG RMK BLU BLU=
METAR LKKU 200700Z 03006KT CAVOK 23/14 Q1023 RMK REG QNH 1020=
METAR LKKV 200700Z 10007KT 070V130 9999 FEW033 20/14 Q1024 RMK REG QNH 1020=
METAR LKLN 200700Z AUTO 07003KT 010V110 9999 OVC069 21/16 Q1024=
METAR LKMT 200700Z 04004KT 360V100 CAVOK 23/15 Q1024 NOSIG RMK REG QNH 1020=
METAR LKNA 200700Z VRB02KT CAVOK 20/14 Q1024 NOSIG RMK BLU BLU=
METAR LKPD 200700Z VRB02KT CAVOK 22/14 Q1024 NOSIG RMK BLU BLU=
METAR LKPR 200700Z 04005KT 9999 FEW025 21/15 Q1024 NOSIG RMK REG QNH 1020=
METAR LKTB 200700Z 32004KT 250V010 CAVOK 23/14 Q1024 NOSIG RMK REG QNH 1020=
METAR LKVO 200700Z 12004KT 050V170 9999 FEW030 SCT049 22/14 Q1024=
METAR LOWI 200650Z VRB02KT 9999 FEW055 19/13 Q1024 NOSIG=
METAR LOWL 200650Z 09005KT 9999 OVC070 21/15 Q1024 NOSIG=
METAR LOWS 200650Z 10003KT 9999 FEW060 21/15 Q1023 NOSIG=
METAR LOWW 200650Z 34006KT 300V010 9999 FEW040 24/14 Q1023 NOSIG=
METAR LZIB 200700Z 03003KT 310V070 CAVOK 25/13 Q1022 NOSIG=
METAR LZKZ 200700Z 01013KT CAVOK 24/13 Q1023 NOSIG=
METAR LZPP 200700Z 01006KT 340V040 CAVOK 24/13 Q1022=
METAR LZSL 200700Z 00000KT 9999 BKN053 21/15 Q1023=
METAR LZTT 200700Z VRB03KT 9999 FEW023 BKN056 20/13 Q1025 NOSIG=
METAR LZZI 200700Z 07005KT 040V100 CAVOK 22/12 Q1024=